sensor_id;sensor_type;location;lat;lon;timestamp;temperature;humidity
64937;SHT30;51452;47.698;19.050;2023-09-19T00:02:02;23.32;63.97
64937;SHT30;51452;47.698;19.050;2023-09-19T00:04:32;23.32;63.86
64937;SHT30;51452;47.698;19.050;2023-09-19T00:06:58;23.27;63.39
64937;SHT30;51452;47.698;19.050;2023-09-19T00:09:24;23.28;62.51
64937;SHT30;51452;47.698;19.050;2023-09-19T00:11:53;23.25;63.08
64937;SHT30;51452;47.698;19.050;2023-09-19T00:14:19;23.22;63.88
64937;SHT30;51452;47.698;19.050;2023-09-19T00:16:44;23.22;62.72
64937;SHT30;51452;47.698;19.050;2023-09-19T00:19:12;23.25;63.44
64937;SHT30;51452;47.698;19.050;2023-09-19T00:21:38;23.22;62.28
64937;SHT30;51452;47.698;19.050;2023-09-19T00:24:06;23.25;62.31
64937;SHT30;51452;47.698;19.050;2023-09-19T00:26:33;23.14;62.73
64937;SHT30;51452;47.698;19.050;2023-09-19T00:28:59;23.18;62.35
64937;SHT30;51452;47.698;19.050;2023-09-19T00:31:30;23.24;64.03
64937;SHT30;51452;47.698;19.050;2023-09-19T00:33:56;23.19;63.66
64937;SHT30;51452;47.698;19.050;2023-09-19T00:36:29;23.12;64.61
64937;SHT30;51452;47.698;19.050;2023-09-19T00:38:54;23.11;64.61
64937;SHT30;51452;47.698;19.050;2023-09-19T00:41:20;23.12;65.69
64937;SHT30;51452;47.698;19.050;2023-09-19T00:43:46;23.08;66.43
64937;SHT30;51452;47.698;19.050;2023-09-19T00:46:16;22.98;66.68
64937;SHT30;51452;47.698;19.050;2023-09-19T00:48:42;23.03;66.96
64937;SHT30;51452;47.698;19.050;2023-09-19T00:51:12;22.98;67.51
64937;SHT30;51452;47.698;19.050;2023-09-19T00:53:39;22.94;67.77
64937;SHT30;51452;47.698;19.050;2023-09-19T00:56:07;22.90;68.08
64937;SHT30;51452;47.698;19.050;2023-09-19T00:58:33;22.88;68.20
64937;SHT30;51452;47.698;19.050;2023-09-19T01:01:00;22.93;67.96
64937;SHT30;51452;47.698;19.050;2023-09-19T01:03:27;22.90;67.65
64937;SHT30;51452;47.698;19.050;2023-09-19T01:05:52;22.91;66.83
64937;SHT30;51452;47.698;19.050;2023-09-19T01:08:18;22.87;67.22
64937;SHT30;51452;47.698;19.050;2023-09-19T01:10:55;22.84;68.00
64937;SHT30;51452;47.698;19.050;2023-09-19T01:13:28;22.83;67.93
64937;SHT30;51452;47.698;19.050;2023-09-19T01:16:18;22.80;67.72
64937;SHT30;51452;47.698;19.050;2023-09-19T01:21:44;22.83;67.86
64937;SHT30;51452;47.698;19.050;2023-09-19T01:30:10;22.91;68.34
64937;SHT30;51452;47.698;19.050;2023-09-19T01:32:36;22.88;68.84
64937;SHT30;51452;47.698;19.050;2023-09-19T01:35:04;22.81;69.52
64937;SHT30;51452;47.698;19.050;2023-09-19T01:37:30;22.81;69.38
64937;SHT30;51452;47.698;19.050;2023-09-19T01:39:59;22.86;68.83
64937;SHT30;51452;47.698;19.050;2023-09-19T01:47:55;22.83;67.60
64937;SHT30;51452;47.698;19.050;2023-09-19T01:53:07;22.87;68.11
64937;SHT30;51452;47.698;19.050;2023-09-19T01:55:37;22.84;68.37
64937;SHT30;51452;47.698;19.050;2023-09-19T02:00:41;22.83;68.40
64937;SHT30;51452;47.698;19.050;2023-09-19T02:03:09;22.86;67.96
64937;SHT30;51452;47.698;19.050;2023-09-19T02:05:35;22.87;69.03
64937;SHT30;51452;47.698;19.050;2023-09-19T02:08:00;22.86;69.33
64937;SHT30;51452;47.698;19.050;2023-09-19T02:10:26;22.83;69.12
64937;SHT30;51452;47.698;19.050;2023-09-19T02:12:52;22.77;69.40
64937;SHT30;51452;47.698;19.050;2023-09-19T02:15:18;22.74;69.49
64937;SHT30;51452;47.698;19.050;2023-09-19T02:17:43;22.74;69.66
64937;SHT30;51452;47.698;19.050;2023-09-19T02:20:10;22.67;69.70
64937;SHT30;51452;47.698;19.050;2023-09-19T02:22:36;22.68;69.60
64937;SHT30;51452;47.698;19.050;2023-09-19T02:25:02;22.67;69.77
64937;SHT30;51452;47.698;19.050;2023-09-19T02:27:30;22.59;70.06
64937;SHT30;51452;47.698;19.050;2023-09-19T02:29:56;22.59;69.81
64937;SHT30;51452;47.698;19.050;2023-09-19T02:32:21;22.52;69.79
64937;SHT30;51452;47.698;19.050;2023-09-19T02:34:46;22.55;69.78
64937;SHT30;51452;47.698;19.050;2023-09-19T02:37:12;22.50;69.09
64937;SHT30;51452;47.698;19.050;2023-09-19T02:39:38;22.45;68.68
64937;SHT30;51452;47.698;19.050;2023-09-19T02:42:04;22.49;68.61
64937;SHT30;51452;47.698;19.050;2023-09-19T02:44:30;22.50;68.58
64937;SHT30;51452;47.698;19.050;2023-09-19T02:46:55;22.47;68.78
64937;SHT30;51452;47.698;19.050;2023-09-19T02:49:22;22.45;68.89
64937;SHT30;51452;47.698;19.050;2023-09-19T02:51:47;22.46;69.26
64937;SHT30;51452;47.698;19.050;2023-09-19T02:54:13;22.43;69.42
64937;SHT30;51452;47.698;19.050;2023-09-19T02:56:39;22.40;69.72
64937;SHT30;51452;47.698;19.050;2023-09-19T02:59:04;22.40;69.26
64937;SHT30;51452;47.698;19.050;2023-09-19T03:01:30;22.39;69.11
64937;SHT30;51452;47.698;19.050;2023-09-19T03:03:56;22.39;69.39
64937;SHT30;51452;47.698;19.050;2023-09-19T03:06:22;22.37;69.54
64937;SHT30;51452;47.698;19.050;2023-09-19T03:08:47;22.36;69.62
64937;SHT30;51452;47.698;19.050;2023-09-19T03:11:15;22.33;69.76
64937;SHT30;51452;47.698;19.050;2023-09-19T03:13:41;22.23;69.91
64937;SHT30;51452;47.698;19.050;2023-09-19T03:16:08;22.06;70.62
64937;SHT30;51452;47.698;19.050;2023-09-19T03:18:36;21.98;70.63
64937;SHT30;51452;47.698;19.050;2023-09-19T03:21:02;21.98;70.93
64937;SHT30;51452;47.698;19.050;2023-09-19T03:23:28;21.95;71.13
64937;SHT30;51452;47.698;19.050;2023-09-19T03:25:54;21.96;71.19
64937;SHT30;51452;47.698;19.050;2023-09-19T03:28:21;22.02;71.39
64937;SHT30;51452;47.698;19.050;2023-09-19T03:30:59;21.99;71.30
64937;SHT30;51452;47.698;19.050;2023-09-19T03:33:25;22.08;71.32
64937;SHT30;51452;47.698;19.050;2023-09-19T03:35:54;22.12;71.26
64937;SHT30;51452;47.698;19.050;2023-09-19T03:38:20;22.09;71.12
64937;SHT30;51452;47.698;19.050;2023-09-19T03:40:47;22.13;70.35
64937;SHT30;51452;47.698;19.050;2023-09-19T03:43:12;22.15;70.63
64937;SHT30;51452;47.698;19.050;2023-09-19T03:45:37;22.20;71.50
64937;SHT30;51452;47.698;19.050;2023-09-19T03:48:11;22.22;71.63
64937;SHT30;51452;47.698;19.050;2023-09-19T03:50:37;22.22;71.01
64937;SHT30;51452;47.698;19.050;2023-09-19T03:53:03;22.22;71.35
64937;SHT30;51452;47.698;19.050;2023-09-19T03:55:28;22.26;71.41
64937;SHT30;51452;47.698;19.050;2023-09-19T03:57:55;22.25;71.73
64937;SHT30;51452;47.698;19.050;2023-09-19T04:00:21;22.20;71.29
64937;SHT30;51452;47.698;19.050;2023-09-19T04:02:48;22.19;71.82
64937;SHT30;51452;47.698;19.050;2023-09-19T04:05:14;22.25;71.17
64937;SHT30;51452;47.698;19.050;2023-09-19T04:07:39;22.19;70.60
64937;SHT30;51452;47.698;19.050;2023-09-19T04:10:05;22.28;70.25
64937;SHT30;51452;47.698;19.050;2023-09-19T04:12:34;22.16;70.56
64937;SHT30;51452;47.698;19.050;2023-09-19T04:14:59;22.12;68.96
64937;SHT30;51452;47.698;19.050;2023-09-19T04:17:24;22.15;68.47
64937;SHT30;51452;47.698;19.050;2023-09-19T04:19:50;22.01;67.15
64937;SHT30;51452;47.698;19.050;2023-09-19T04:22:15;22.02;66.87
64937;SHT30;51452;47.698;19.050;2023-09-19T04:24:40;21.96;67.42
64937;SHT30;51452;47.698;19.050;2023-09-19T04:27:06;21.82;67.10
64937;SHT30;51452;47.698;19.050;2023-09-19T04:29:32;21.82;67.01
64937;SHT30;51452;47.698;19.050;2023-09-19T04:31:58;21.78;67.31
64937;SHT30;51452;47.698;19.050;2023-09-19T04:34:23;21.74;67.48
64937;SHT30;51452;47.698;19.050;2023-09-19T04:36:49;21.79;67.97
64937;SHT30;51452;47.698;19.050;2023-09-19T04:39:14;21.73;67.26
64937;SHT30;51452;47.698;19.050;2023-09-19T04:41:40;21.75;67.69
64937;SHT30;51452;47.698;19.050;2023-09-19T04:44:07;21.64;67.86
64937;SHT30;51452;47.698;19.050;2023-09-19T04:46:35;21.65;67.72
64937;SHT30;51452;47.698;19.050;2023-09-19T04:49:01;21.51;67.95
64937;SHT30;51452;47.698;19.050;2023-09-19T04:51:27;21.48;68.38
64937;SHT30;51452;47.698;19.050;2023-09-19T04:53:58;21.46;68.14
64937;SHT30;51452;47.698;19.050;2023-09-19T04:56:23;21.40;68.77
64937;SHT30;51452;47.698;19.050;2023-09-19T04:58:49;21.37;68.76
64937;SHT30;51452;47.698;19.050;2023-09-19T05:01:14;21.34;68.64
64937;SHT30;51452;47.698;19.050;2023-09-19T05:03:40;21.36;68.61
64937;SHT30;51452;47.698;19.050;2023-09-19T05:06:06;21.31;68.85
64937;SHT30;51452;47.698;19.050;2023-09-19T05:08:31;21.37;68.78
64937;SHT30;51452;47.698;19.050;2023-09-19T05:10:56;21.24;69.57
64937;SHT30;51452;47.698;19.050;2023-09-19T05:13:22;21.11;70.30
64937;SHT30;51452;47.698;19.050;2023-09-19T05:15:49;21.10;70.35
64937;SHT30;51452;47.698;19.050;2023-09-19T05:18:15;21.04;70.62
64937;SHT30;51452;47.698;19.050;2023-09-19T05:20:41;21.11;70.87
64937;SHT30;51452;47.698;19.050;2023-09-19T05:23:07;21.14;70.72
64937;SHT30;51452;47.698;19.050;2023-09-19T05:25:35;21.17;70.67
64937;SHT30;51452;47.698;19.050;2023-09-19T05:28:02;21.23;70.61
64937;SHT30;51452;47.698;19.050;2023-09-19T05:30:31;21.22;70.59
64937;SHT30;51452;47.698;19.050;2023-09-19T05:32:57;21.16;70.74
64937;SHT30;51452;47.698;19.050;2023-09-19T05:35:23;21.00;70.76
64937;SHT30;51452;47.698;19.050;2023-09-19T05:37:52;21.00;70.73
64937;SHT30;51452;47.698;19.050;2023-09-19T05:40:18;20.92;70.87
64937;SHT30;51452;47.698;19.050;2023-09-19T05:42:44;20.92;71.13
64937;SHT30;51452;47.698;19.050;2023-09-19T05:45:10;20.79;71.37
64937;SHT30;51452;47.698;19.050;2023-09-19T05:47:41;20.85;71.46
64937;SHT30;51452;47.698;19.050;2023-09-19T05:50:09;20.89;71.45
64937;SHT30;51452;47.698;19.050;2023-09-19T05:52:35;21.02;71.01
64937;SHT30;51452;47.698;19.050;2023-09-19T05:55:04;21.08;70.83
64937;SHT30;51452;47.698;19.050;2023-09-19T05:57:30;21.06;71.10
64937;SHT30;51452;47.698;19.050;2023-09-19T05:59:55;21.04;71.07
64937;SHT30;51452;47.698;19.050;2023-09-19T06:02:21;21.07;70.90
64937;SHT30;51452;47.698;19.050;2023-09-19T06:04:46;20.99;71.62
64937;SHT30;51452;47.698;19.050;2023-09-19T06:07:11;21.03;71.32
64937;SHT30;51452;47.698;19.050;2023-09-19T06:09:37;21.06;71.55
64937;SHT30;51452;47.698;19.050;2023-09-19T06:12:04;21.17;71.09
64937;SHT30;51452;47.698;19.050;2023-09-19T06:14:30;21.19;70.88
64937;SHT30;51452;47.698;19.050;2023-09-19T06:16:56;21.17;71.21
64937;SHT30;51452;47.698;19.050;2023-09-19T06:19:21;21.17;70.62
64937;SHT30;51452;47.698;19.050;2023-09-19T06:21:48;21.00;70.31
64937;SHT30;51452;47.698;19.050;2023-09-19T06:24:14;21.03;70.73
64937;SHT30;51452;47.698;19.050;2023-09-19T06:26:40;20.90;71.51
64937;SHT30;51452;47.698;19.050;2023-09-19T06:29:05;20.76;72.05
64937;SHT30;51452;47.698;19.050;2023-09-19T06:31:33;20.75;73.05
64937;SHT30;51452;47.698;19.050;2023-09-19T06:33:58;20.76;72.88
64937;SHT30;51452;47.698;19.050;2023-09-19T06:36:24;20.65;73.18
64937;SHT30;51452;47.698;19.050;2023-09-19T06:38:49;20.46;73.64
64937;SHT30;51452;47.698;19.050;2023-09-19T06:41:17;20.46;74.46
64937;SHT30;51452;47.698;19.050;2023-09-19T06:43:42;20.41;74.11
64937;SHT30;51452;47.698;19.050;2023-09-19T06:46:07;20.25;74.63
64937;SHT30;51452;47.698;19.050;2023-09-19T06:48:33;20.25;75.09
64937;SHT30;51452;47.698;19.050;2023-09-19T06:50:58;20.14;74.81
64937;SHT30;51452;47.698;19.050;2023-09-19T06:53:30;20.03;75.69
64937;SHT30;51452;47.698;19.050;2023-09-19T06:55:57;20.03;75.32
64937;SHT30;51452;47.698;19.050;2023-09-19T06:58:22;19.86;75.68
64937;SHT30;51452;47.698;19.050;2023-09-19T07:00:48;19.86;75.86
64937;SHT30;51452;47.698;19.050;2023-09-19T07:03:15;19.84;75.68
64937;SHT30;51452;47.698;19.050;2023-09-19T07:05:44;19.74;75.97
64937;SHT30;51452;47.698;19.050;2023-09-19T07:08:10;19.83;76.23
64937;SHT30;51452;47.698;19.050;2023-09-19T07:10:39;19.83;75.65
64937;SHT30;51452;47.698;19.050;2023-09-19T07:13:07;19.90;76.89
64937;SHT30;51452;47.698;19.050;2023-09-19T07:15:36;20.03;76.28
64937;SHT30;51452;47.698;19.050;2023-09-19T07:18:05;20.00;75.66
64937;SHT30;51452;47.698;19.050;2023-09-19T07:20:31;20.03;75.73
64937;SHT30;51452;47.698;19.050;2023-09-19T07:22:58;20.05;75.67
64937;SHT30;51452;47.698;19.050;2023-09-19T07:25:31;20.08;75.28
64937;SHT30;51452;47.698;19.050;2023-09-19T07:27:58;20.04;75.56
64937;SHT30;51452;47.698;19.050;2023-09-19T07:30:27;20.01;76.14
64937;SHT30;51452;47.698;19.050;2023-09-19T07:32:52;20.01;76.06
64937;SHT30;51452;47.698;19.050;2023-09-19T07:35:18;19.97;75.49
64937;SHT30;51452;47.698;19.050;2023-09-19T07:37:47;19.86;75.69
64937;SHT30;51452;47.698;19.050;2023-09-19T07:40:17;19.74;75.92
64937;SHT30;51452;47.698;19.050;2023-09-19T07:42:43;19.81;76.58
64937;SHT30;51452;47.698;19.050;2023-09-19T07:45:10;19.81;76.04
64937;SHT30;51452;47.698;19.050;2023-09-19T07:47:49;19.86;76.20
64937;SHT30;51452;47.698;19.050;2023-09-19T07:50:15;19.88;76.30
64937;SHT30;51452;47.698;19.050;2023-09-19T07:52:41;19.93;75.23
64937;SHT30;51452;47.698;19.050;2023-09-19T07:55:08;19.93;77.16
64937;SHT30;51452;47.698;19.050;2023-09-19T07:57:37;19.91;76.87
64937;SHT30;51452;47.698;19.050;2023-09-19T08:00:03;19.96;75.76
64937;SHT30;51452;47.698;19.050;2023-09-19T08:02:40;19.88;77.08
64937;SHT30;51452;47.698;19.050;2023-09-19T08:05:09;19.87;76.71
64937;SHT30;51452;47.698;19.050;2023-09-19T08:07:36;20.01;76.51
64937;SHT30;51452;47.698;19.050;2023-09-19T08:10:03;19.94;77.00
64937;SHT30;51452;47.698;19.050;2023-09-19T08:12:29;19.93;76.66
64937;SHT30;51452;47.698;19.050;2023-09-19T08:14:55;19.78;76.53
64937;SHT30;51452;47.698;19.050;2023-09-19T08:17:20;19.74;76.13
64937;SHT30;51452;47.698;19.050;2023-09-19T08:19:48;19.93;76.83
64937;SHT30;51452;47.698;19.050;2023-09-19T08:22:18;20.07;77.55
64937;SHT30;51452;47.698;19.050;2023-09-19T08:24:44;20.14;76.78
64937;SHT30;51452;47.698;19.050;2023-09-19T08:27:09;20.17;76.11
64937;SHT30;51452;47.698;19.050;2023-09-19T08:29:35;20.18;77.08
64937;SHT30;51452;47.698;19.050;2023-09-19T08:32:01;20.21;76.68
64937;SHT30;51452;47.698;19.050;2023-09-19T08:34:26;20.22;76.27
64937;SHT30;51452;47.698;19.050;2023-09-19T08:36:55;20.20;75.60
64937;SHT30;51452;47.698;19.050;2023-09-19T08:39:24;20.15;76.24
64937;SHT30;51452;47.698;19.050;2023-09-19T08:41:57;20.18;76.79
64937;SHT30;51452;47.698;19.050;2023-09-19T08:44:23;20.15;76.38
64937;SHT30;51452;47.698;19.050;2023-09-19T08:46:54;20.13;75.84
64937;SHT30;51452;47.698;19.050;2023-09-19T08:49:27;20.20;76.35
64937;SHT30;51452;47.698;19.050;2023-09-19T08:52:12;20.17;76.17
64937;SHT30;51452;47.698;19.050;2023-09-19T08:54:40;20.15;76.85
64937;SHT30;51452;47.698;19.050;2023-09-19T08:57:07;20.15;76.75
64937;SHT30;51452;47.698;19.050;2023-09-19T08:59:37;20.24;76.54
64937;SHT30;51452;47.698;19.050;2023-09-19T09:02:10;20.36;76.69
64937;SHT30;51452;47.698;19.050;2023-09-19T09:04:39;20.39;77.44
64937;SHT30;51452;47.698;19.050;2023-09-19T09:07:10;20.35;76.13
64937;SHT30;51452;47.698;19.050;2023-09-19T09:09:35;20.31;76.46
64937;SHT30;51452;47.698;19.050;2023-09-19T09:12:02;20.36;76.17
64937;SHT30;51452;47.698;19.050;2023-09-19T09:14:28;20.42;76.27
64937;SHT30;51452;47.698;19.050;2023-09-19T09:16:55;20.32;76.89
64937;SHT30;51452;47.698;19.050;2023-09-19T09:19:24;20.39;76.23
64937;SHT30;51452;47.698;19.050;2023-09-19T09:21:51;20.46;76.34
64937;SHT30;51452;47.698;19.050;2023-09-19T09:24:29;20.44;76.04
64937;SHT30;51452;47.698;19.050;2023-09-19T09:26:59;20.44;74.92
64937;SHT30;51452;47.698;19.050;2023-09-19T09:29:42;20.46;75.58
64937;SHT30;51452;47.698;19.050;2023-09-19T09:32:24;20.39;75.77
64937;SHT30;51452;47.698;19.050;2023-09-19T09:34:53;20.51;76.98
64937;SHT30;51452;47.698;19.050;2023-09-19T09:37:19;20.46;77.01
64937;SHT30;51452;47.698;19.050;2023-09-19T09:40:14;20.45;75.79
64937;SHT30;51452;47.698;19.050;2023-09-19T09:42:40;20.38;75.25
64937;SHT30;51452;47.698;19.050;2023-09-19T09:48:00;20.46;75.16
64937;SHT30;51452;47.698;19.050;2023-09-19T09:50:35;20.58;75.19
64937;SHT30;51452;47.698;19.050;2023-09-19T09:53:29;20.62;77.27
64937;SHT30;51452;47.698;19.050;2023-09-19T09:58:26;20.69;76.15
64937;SHT30;51452;47.698;19.050;2023-09-19T10:00:57;20.77;76.25
64937;SHT30;51452;47.698;19.050;2023-09-19T10:03:37;20.85;76.65
64937;SHT30;51452;47.698;19.050;2023-09-19T10:06:12;20.95;76.35
64937;SHT30;51452;47.698;19.050;2023-09-19T10:09:07;21.08;74.85
64937;SHT30;51452;47.698;19.050;2023-09-19T10:11:42;21.14;74.87
64937;SHT30;51452;47.698;19.050;2023-09-19T10:14:12;21.13;76.03
64937;SHT30;51452;47.698;19.050;2023-09-19T10:16:46;21.13;74.12
64937;SHT30;51452;47.698;19.050;2023-09-19T10:19:21;21.13;73.42
64937;SHT30;51452;47.698;19.050;2023-09-19T10:21:50;21.02;73.77
64937;SHT30;51452;47.698;19.050;2023-09-19T10:24:17;20.93;73.14
64937;SHT30;51452;47.698;19.050;2023-09-19T10:26:45;21.04;74.69
64937;SHT30;51452;47.698;19.050;2023-09-19T10:29:13;21.13;73.20
64937;SHT30;51452;47.698;19.050;2023-09-19T10:31:39;21.23;74.90
64937;SHT30;51452;47.698;19.050;2023-09-19T10:34:10;21.55;74.85
64937;SHT30;51452;47.698;19.050;2023-09-19T10:36:36;21.74;75.99
64937;SHT30;51452;47.698;19.050;2023-09-19T10:39:03;21.78;74.17
64937;SHT30;51452;47.698;19.050;2023-09-19T10:41:34;21.69;71.80
64937;SHT30;51452;47.698;19.050;2023-09-19T10:44:04;21.65;73.11
64937;SHT30;51452;47.698;19.050;2023-09-19T10:46:34;21.65;72.81
64937;SHT30;51452;47.698;19.050;2023-09-19T10:49:00;21.69;73.89
64937;SHT30;51452;47.698;19.050;2023-09-19T10:51:30;21.67;73.78
64937;SHT30;51452;47.698;19.050;2023-09-19T10:54:21;21.57;73.81
64937;SHT30;51452;47.698;19.050;2023-09-19T10:56:50;21.46;73.63
64937;SHT30;51452;47.698;19.050;2023-09-19T10:59:37;21.36;73.06
64937;SHT30;51452;47.698;19.050;2023-09-19T11:02:17;21.37;74.27
64937;SHT30;51452;47.698;19.050;2023-09-19T11:04:43;21.40;74.30
64937;SHT30;51452;47.698;19.050;2023-09-19T11:07:12;21.40;73.75
64937;SHT30;51452;47.698;19.050;2023-09-19T11:09:50;21.37;73.16
64937;SHT30;51452;47.698;19.050;2023-09-19T11:15:06;21.27;72.29
64937;SHT30;51452;47.698;19.050;2023-09-19T11:17:34;21.19;73.28
64937;SHT30;51452;47.698;19.050;2023-09-19T11:30:35;21.26;73.18
64937;SHT30;51452;47.698;19.050;2023-09-19T11:33:27;21.38;71.23
64937;SHT30;51452;47.698;19.050;2023-09-19T11:43:52;22.08;67.65
64937;SHT30;51452;47.698;19.050;2023-09-19T11:46:20;22.16;68.84
64937;SHT30;51452;47.698;19.050;2023-09-19T11:48:50;22.28;67.87
64937;SHT30;51452;47.698;19.050;2023-09-19T11:51:20;22.42;68.54
64937;SHT30;51452;47.698;19.050;2023-09-19T11:53:58;22.49;67.70
64937;SHT30;51452;47.698;19.050;2023-09-19T11:56:27;22.66;66.63
64937;SHT30;51452;47.698;19.050;2023-09-19T11:58:55;22.63;65.08
64937;SHT30;51452;47.698;19.050;2023-09-19T12:01:31;22.81;64.93
64937;SHT30;51452;47.698;19.050;2023-09-19T12:04:00;22.63;64.90
64937;SHT30;51452;47.698;19.050;2023-09-19T12:06:28;22.84;66.20
64937;SHT30;51452;47.698;19.050;2023-09-19T12:09:02;22.83;65.98
64937;SHT30;51452;47.698;19.050;2023-09-19T12:11:32;22.80;66.85
64937;SHT30;51452;47.698;19.050;2023-09-19T12:13:58;22.68;65.72
64937;SHT30;51452;47.698;19.050;2023-09-19T12:16:26;22.57;65.40
64937;SHT30;51452;47.698;19.050;2023-09-19T12:18:56;22.59;65.49
64937;SHT30;51452;47.698;19.050;2023-09-19T12:21:26;22.55;65.68
64937;SHT30;51452;47.698;19.050;2023-09-19T12:26:40;22.80;66.64
64937;SHT30;51452;47.698;19.050;2023-09-19T12:29:17;22.68;65.95
64937;SHT30;51452;47.698;19.050;2023-09-19T12:31:57;22.53;65.45
64937;SHT30;51452;47.698;19.050;2023-09-19T12:34:32;22.57;65.76
64937;SHT30;51452;47.698;19.050;2023-09-19T12:39:31;22.63;64.82
64937;SHT30;51452;47.698;19.050;2023-09-19T12:41:56;22.73;65.99
64937;SHT30;51452;47.698;19.050;2023-09-19T12:44:22;22.96;63.89
64937;SHT30;51452;47.698;19.050;2023-09-19T12:46:50;23.11;65.25
64937;SHT30;51452;47.698;19.050;2023-09-19T12:49:17;23.19;63.92
64937;SHT30;51452;47.698;19.050;2023-09-19T12:51:43;23.35;63.75
64937;SHT30;51452;47.698;19.050;2023-09-19T12:54:09;23.51;64.51
64937;SHT30;51452;47.698;19.050;2023-09-19T12:56:43;23.63;64.60
64937;SHT30;51452;47.698;19.050;2023-09-19T12:59:11;23.82;63.62
64937;SHT30;51452;47.698;19.050;2023-09-19T13:01:39;23.85;61.82
64937;SHT30;51452;47.698;19.050;2023-09-19T13:04:21;24.12;62.98
64937;SHT30;51452;47.698;19.050;2023-09-19T13:06:55;23.96;61.07
64937;SHT30;51452;47.698;19.050;2023-09-19T13:09:27;23.95;61.66
64937;SHT30;51452;47.698;19.050;2023-09-19T13:11:59;23.92;61.92
64937;SHT30;51452;47.698;19.050;2023-09-19T13:14:27;23.80;61.95
64937;SHT30;51452;47.698;19.050;2023-09-19T13:17:04;24.02;62.91
64937;SHT30;51452;47.698;19.050;2023-09-19T13:19:50;24.24;61.20
64937;SHT30;51452;47.698;19.050;2023-09-19T13:22:42;24.17;60.68
64937;SHT30;51452;47.698;19.050;2023-09-19T13:25:17;24.00;60.02
64937;SHT30;51452;47.698;19.050;2023-09-19T13:27:57;23.92;60.00
64937;SHT30;51452;47.698;19.050;2023-09-19T13:30:24;23.77;60.90
64937;SHT30;51452;47.698;19.050;2023-09-19T13:33:09;23.93;61.28
64937;SHT30;51452;47.698;19.050;2023-09-19T13:35:35;23.90;61.04
64937;SHT30;51452;47.698;19.050;2023-09-19T13:38:04;24.00;62.01
64937;SHT30;51452;47.698;19.050;2023-09-19T13:40:29;24.07;62.05
64937;SHT30;51452;47.698;19.050;2023-09-19T13:43:03;24.14;61.66
64937;SHT30;51452;47.698;19.050;2023-09-19T13:45:28;24.16;59.80
64937;SHT30;51452;47.698;19.050;2023-09-19T13:47:56;24.37;60.74
64937;SHT30;51452;47.698;19.050;2023-09-19T13:50:21;24.47;60.34
64937;SHT30;51452;47.698;19.050;2023-09-19T13:52:50;24.20;58.43
64937;SHT30;51452;47.698;19.050;2023-09-19T13:55:17;24.26;60.65
64937;SHT30;51452;47.698;19.050;2023-09-19T13:57:45;24.24;60.63
64937;SHT30;51452;47.698;19.050;2023-09-19T14:00:11;24.23;60.18
64937;SHT30;51452;47.698;19.050;2023-09-19T14:02:39;24.24;60.51
64937;SHT30;51452;47.698;19.050;2023-09-19T14:05:05;24.33;59.58
64937;SHT30;51452;47.698;19.050;2023-09-19T14:07:31;24.37;60.65
64937;SHT30;51452;47.698;19.050;2023-09-19T14:09:57;24.40;59.18
64937;SHT30;51452;47.698;19.050;2023-09-19T14:12:22;24.40;59.10
64937;SHT30;51452;47.698;19.050;2023-09-19T14:14:50;24.30;59.19
64937;SHT30;51452;47.698;19.050;2023-09-19T14:17:16;24.28;59.20
64937;SHT30;51452;47.698;19.050;2023-09-19T14:19:41;24.27;60.52
64937;SHT30;51452;47.698;19.050;2023-09-19T14:22:09;24.24;58.66
64937;SHT30;51452;47.698;19.050;2023-09-19T14:24:35;24.23;59.36
64937;SHT30;51452;47.698;19.050;2023-09-19T14:27:01;24.27;59.79
64937;SHT30;51452;47.698;19.050;2023-09-19T14:29:30;24.36;60.16
64937;SHT30;51452;47.698;19.050;2023-09-19T14:31:55;24.34;59.09
64937;SHT30;51452;47.698;19.050;2023-09-19T14:34:22;24.36;58.35
64937;SHT30;51452;47.698;19.050;2023-09-19T14:36:47;24.27;59.34
64937;SHT30;51452;47.698;19.050;2023-09-19T14:39:14;24.27;59.63
64937;SHT30;51452;47.698;19.050;2023-09-19T14:41:39;24.16;59.96
64937;SHT30;51452;47.698;19.050;2023-09-19T14:44:04;24.13;59.31
64937;SHT30;51452;47.698;19.050;2023-09-19T14:46:30;24.00;58.79
64937;SHT30;51452;47.698;19.050;2023-09-19T14:48:56;23.90;59.53
64937;SHT30;51452;47.698;19.050;2023-09-19T14:51:24;23.89;60.90
64937;SHT30;51452;47.698;19.050;2023-09-19T14:53:50;23.87;60.40
64937;SHT30;51452;47.698;19.050;2023-09-19T14:56:15;23.83;59.70
64937;SHT30;51452;47.698;19.050;2023-09-19T14:58:44;23.85;58.85
64937;SHT30;51452;47.698;19.050;2023-09-19T15:01:11;23.86;59.12
64937;SHT30;51452;47.698;19.050;2023-09-19T15:03:38;23.75;59.25
64937;SHT30;51452;47.698;19.050;2023-09-19T15:06:09;23.66;58.46
64937;SHT30;51452;47.698;19.050;2023-09-19T15:08:36;23.72;59.07
64937;SHT30;51452;47.698;19.050;2023-09-19T15:11:07;23.69;59.91
64937;SHT30;51452;47.698;19.050;2023-09-19T15:13:33;23.61;59.64
64937;SHT30;51452;47.698;19.050;2023-09-19T15:16:04;23.52;60.65
64937;SHT30;51452;47.698;19.050;2023-09-19T15:18:31;23.54;60.30
64937;SHT30;51452;47.698;19.050;2023-09-19T15:21:02;23.49;59.45
64937;SHT30;51452;47.698;19.050;2023-09-19T15:23:32;23.51;59.62
64937;SHT30;51452;47.698;19.050;2023-09-19T15:26:12;23.37;60.46
64937;SHT30;51452;47.698;19.050;2023-09-19T15:28:38;23.39;59.36
64937;SHT30;51452;47.698;19.050;2023-09-19T15:31:12;23.48;59.24
64937;SHT30;51452;47.698;19.050;2023-09-19T15:33:38;23.29;58.67
64937;SHT30;51452;47.698;19.050;2023-09-19T15:36:07;23.38;59.19
64937;SHT30;51452;47.698;19.050;2023-09-19T15:41:25;23.27;60.20
64937;SHT30;51452;47.698;19.050;2023-09-19T15:43:52;23.21;60.15
64937;SHT30;51452;47.698;19.050;2023-09-19T15:46:17;23.17;60.85
64937;SHT30;51452;47.698;19.050;2023-09-19T15:48:43;23.12;60.68
64937;SHT30;51452;47.698;19.050;2023-09-19T15:51:10;23.03;60.51
64937;SHT30;51452;47.698;19.050;2023-09-19T15:53:46;23.10;59.80
64937;SHT30;51452;47.698;19.050;2023-09-19T15:56:16;23.11;61.15
64937;SHT30;51452;47.698;19.050;2023-09-19T15:58:46;23.12;61.56
64937;SHT30;51452;47.698;19.050;2023-09-19T16:01:12;23.05;62.46
64937;SHT30;51452;47.698;19.050;2023-09-19T16:03:39;22.94;60.19
64937;SHT30;51452;47.698;19.050;2023-09-19T16:06:10;22.97;61.20
64937;SHT30;51452;47.698;19.050;2023-09-19T16:08:40;22.90;62.68
64937;SHT30;51452;47.698;19.050;2023-09-19T16:11:07;22.87;62.90
64937;SHT30;51452;47.698;19.050;2023-09-19T16:13:33;22.86;62.73
64937;SHT30;51452;47.698;19.050;2023-09-19T16:15:59;22.78;63.08
64937;SHT30;51452;47.698;19.050;2023-09-19T16:18:24;22.76;63.63